Time;durP1;ratioP1;P1;durP2;ratioP2;P2;SDS_P1;SDS_P2;PMS_P1;PMS_P2;Temp;Humidity;BMP_temperature;BMP_pressure;BME280_temperature;BME280_humidity;BME280_pressure;Samples;Min_cycle;Max_cycle;Signal;HPM_P1;HPM_P2
2023/08/28 00:01:57;;;;;;;2.00;0.70;;;20.70;59.30;;;;;;5073013;28;20277;-49
2023/08/28 00:04:24;;;;;;;0.60;0.60;;;20.70;59.30;;;;;;5073406;28;20605;-56
2023/08/28 00:06:52;;;;;;;1.95;0.98;;;20.70;59.30;;;;;;5073319;28;20278;-54
2023/08/28 00:09:19;;;;;;;1.63;0.73;;;20.70;59.30;;;;;;5073166;28;20219;-54
2023/08/28 00:11:46;;;;;;;1.25;0.95;;;20.70;59.30;;;;;;5072964;28;20219;-50
2023/08/28 00:14:13;;;;;;;1.08;0.82;;;20.70;59.30;;;;;;5073103;28;20222;-54
2023/08/28 00:16:40;;;;;;;1.77;0.80;;;20.70;59.30;;;;;;5072752;28;20191;-54
2023/08/28 00:19:08;;;;;;;2.03;0.93;;;20.60;59.20;;;;;;5072969;28;20268;-54
2023/08/28 00:21:35;;;;;;;1.70;0.80;;;20.70;59.30;;;;;;5073071;28;20621;-52
2023/08/28 00:24:02;;;;;;;0.95;0.55;;;20.70;59.30;;;;;;5072916;28;20224;-55
2023/08/28 00:26:29;;;;;;;1.75;0.73;;;20.70;59.40;;;;;;5072978;28;20183;-54
2023/08/28 00:28:56;;;;;;;2.63;1.00;;;20.70;60.10;;;;;;5072742;28;20704;-49
2023/08/28 00:31:23;;;;;;;2.33;0.60;;;20.60;59.30;;;;;;5071853;28;20218;-51
2023/08/28 00:33:50;;;;;;;2.38;0.93;;;20.70;59.40;;;;;;5072835;28;20218;-54
2023/08/28 00:36:19;;;;;;;1.02;0.85;;;20.70;59.40;;;;;;5072535;28;20270;-53
2023/08/28 00:38:46;;;;;;;0.82;0.70;;;20.70;59.40;;;;;;5072506;28;20249;-52
2023/08/28 00:41:12;;;;;;;1.15;0.75;;;20.70;59.40;;;;;;5072301;28;20568;-52
2023/08/28 00:43:39;;;;;;;2.85;0.80;;;20.70;59.40;;;;;;5072981;28;20304;-57
2023/08/28 00:46:07;;;;;;;1.23;0.77;;;20.60;59.40;;;;;;5072271;28;20277;-54
2023/08/28 00:48:34;;;;;;;3.00;1.23;;;20.70;60.10;;;;;;5072668;28;20306;-56
2023/08/28 00:51:01;;;;;;;1.77;0.80;;;20.70;59.50;;;;;;5072678;28;20246;-53
2023/08/28 00:53:29;;;;;;;2.80;0.88;;;20.60;59.40;;;;;;5071866;28;20306;-53
2023/08/28 00:55:57;;;;;;;1.30;0.80;;;20.60;59.40;;;;;;5072413;28;20240;-52
2023/08/28 00:58:24;;;;;;;3.17;0.90;;;20.60;59.40;;;;;;5072713;28;20220;-50
2023/08/28 01:00:51;;;;;;;2.35;0.90;;;20.70;59.50;;;;;;5072055;28;20189;-56
2023/08/28 01:03:17;;;;;;;1.10;0.88;;;20.60;59.40;;;;;;5072593;28;20215;-53
2023/08/28 01:05:54;;;;;;;1.52;0.93;;;20.60;59.40;;;;;;5072394;28;20634;-49
2023/08/28 01:08:29;;;;;;;1.30;0.75;;;20.70;59.60;;;;;;5071858;28;20309;-52
2023/08/28 01:11:02;;;;;;;2.25;0.70;;;20.60;59.50;;;;;;5072280;28;20182;-55
2023/08/28 01:13:36;;;;;;;1.67;0.65;;;20.60;59.50;;;;;;5072342;28;20222;-53
2023/08/28 01:16:04;;;;;;;1.58;0.80;;;20.60;59.50;;;;;;5072272;28;20191;-49
2023/08/28 01:18:32;;;;;;;1.25;0.70;;;20.60;59.50;;;;;;5072329;28;20225;-53
2023/08/28 01:21:01;;;;;;;0.85;0.60;;;20.60;59.50;;;;;;5071901;28;20282;-53
2023/08/28 01:23:33;;;;;;;2.47;0.98;;;20.60;59.50;;;;;;5072584;28;20239;-56
2023/08/28 01:26:02;;;;;;;3.95;1.02;;;20.60;59.50;;;;;;5072208;28;20282;-49
2023/08/28 01:28:29;;;;;;;1.27;0.82;;;20.60;59.50;;;;;;5071762;28;20214;-53
2023/08/28 01:30:56;;;;;;;1.15;0.50;;;20.60;59.60;;;;;;5072126;28;20281;-52
2023/08/28 01:33:22;;;;;;;1.70;0.70;;;20.60;59.60;;;;;;5071864;28;20704;-53
2023/08/28 01:35:56;;;;;;;0.60;0.60;;;20.60;59.60;;;;;;5072080;28;20197;-54
2023/08/28 01:38:28;;;;;;;0.82;0.60;;;20.60;59.50;;;;;;5072070;28;20225;-52
2023/08/28 01:40:58;;;;;;;0.77;0.63;;;20.60;59.60;;;;;;5071896;28;20286;-49
2023/08/28 01:43:32;;;;;;;1.05;0.80;;;20.60;59.60;;;;;;5075230;28;20302;-52
2023/08/28 01:45:59;;;;;;;0.75;0.73;;;20.60;59.60;;;;;;5075945;28;20195;-57
2023/08/28 01:48:27;;;;;;;1.17;0.70;;;20.60;59.60;;;;;;5076061;28;20310;-54
2023/08/28 01:50:54;;;;;;;1.05;0.68;;;20.60;60.30;;;;;;5075206;28;20198;-56
2023/08/28 01:53:21;;;;;;;1.15;0.85;;;20.60;59.60;;;;;;5075816;28;20214;-52
2023/08/28 01:56:16;;;;;;;1.50;0.85;;;20.60;59.70;;;;;;5075780;28;20309;-55
2023/08/28 01:58:45;;;;;;;0.90;0.70;;;20.60;59.70;;;;;;5075559;28;20225;-49
2023/08/28 02:01:12;;;;;;;1.63;0.68;;;20.60;59.60;;;;;;5075697;28;20191;-53
2023/08/28 02:03:40;;;;;;;0.98;0.50;;;20.60;59.60;;;;;;5075602;28;20309;-51
2023/08/28 02:06:07;;;;;;;1.63;0.60;;;20.60;59.60;;;;;;5075175;28;20290;-51
2023/08/28 02:08:34;;;;;;;1.00;0.70;;;20.60;59.70;;;;;;5075205;28;20628;-50
2023/08/28 02:11:01;;;;;;;1.30;0.80;;;20.60;59.70;;;;;;5075022;28;20282;-48
2023/08/28 02:13:28;;;;;;;0.90;0.70;;;20.60;59.70;;;;;;5075245;28;20309;-53
2023/08/28 02:15:56;;;;;;;1.17;0.70;;;20.60;59.70;;;;;;5075024;28;20740;-51
2023/08/28 02:18:23;;;;;;;1.73;0.73;;;20.60;59.70;;;;;;5075370;28;20215;-50
2023/08/28 02:20:50;;;;;;;1.35;0.90;;;20.60;59.70;;;;;;5074860;28;20193;-48
2023/08/28 02:23:17;;;;;;;1.67;0.60;;;20.60;59.70;;;;;;5075621;28;20217;-54
2023/08/28 02:25:45;;;;;;;1.02;0.80;;;20.60;59.70;;;;;;5074876;28;20671;-47
2023/08/28 02:28:12;;;;;;;1.17;0.50;;;20.60;59.70;;;;;;5074533;28;20659;-56
2023/08/28 02:30:39;;;;;;;0.82;0.70;;;20.60;59.70;;;;;;5074853;28;20758;-51
2023/08/28 02:33:07;;;;;;;0.88;0.60;;;20.60;59.70;;;;;;5075244;28;20238;-51
2023/08/28 02:35:34;;;;;;;0.85;0.70;;;20.60;59.70;;;;;;5074254;28;20728;-56
2023/08/28 02:38:01;;;;;;;0.80;0.60;;;20.60;59.70;;;;;;5075029;28;20245;-56
2023/08/28 02:40:28;;;;;;;0.70;0.60;;;20.60;60.50;;;;;;5074830;28;20277;-56
2023/08/28 02:42:55;;;;;;;0.90;0.70;;;20.60;59.70;;;;;;5074196;28;20193;-55
2023/08/28 02:45:22;;;;;;;0.70;0.70;;;20.60;59.70;;;;;;5074395;28;20198;-53
2023/08/28 02:47:49;;;;;;;2.08;0.70;;;20.60;59.70;;;;;;5074922;28;20191;-54
2023/08/28 02:50:17;;;;;;;1.00;0.70;;;20.60;59.80;;;;;;5074344;28;20274;-51
2023/08/28 02:52:44;;;;;;;1.00;0.60;;;20.60;59.80;;;;;;5074309;28;20265;-55
2023/08/28 02:55:11;;;;;;;1.30;0.60;;;20.60;59.80;;;;;;5073616;28;20237;-53
2023/08/28 02:57:37;;;;;;;2.30;0.60;;;20.60;59.80;;;;;;5074179;28;20286;-55
2023/08/28 03:00:06;;;;;;;0.63;0.60;;;20.60;59.80;;;;;;5074692;28;20187;-52
2023/08/28 03:02:33;;;;;;;0.80;0.70;;;20.50;59.70;;;;;;5074764;28;20191;-56
2023/08/28 03:05:00;;;;;;;0.68;0.68;;;20.60;59.80;;;;;;5074181;28;20225;-54
2023/08/28 03:07:28;;;;;;;1.63;0.60;;;20.60;59.80;;;;;;5074568;28;20218;-49
2023/08/28 03:09:55;;;;;;;1.60;0.65;;;20.60;59.80;;;;;;5074295;28;20671;-53
2023/08/28 03:12:22;;;;;;;1.30;0.70;;;20.50;59.70;;;;;;5073901;28;20223;-51
2023/08/28 03:14:49;;;;;;;1.20;0.65;;;20.50;59.70;;;;;;5074066;28;20645;-50
2023/08/28 03:17:16;;;;;;;0.63;0.55;;;20.60;59.80;;;;;;5073780;28;20640;-54
2023/08/28 03:19:43;;;;;;;2.97;0.70;;;20.50;59.70;;;;;;5073726;28;20305;-53
2023/08/28 03:22:10;;;;;;;0.47;0.47;;;20.60;59.80;;;;;;5074143;28;20198;-53
2023/08/28 03:24:38;;;;;;;1.38;0.68;;;20.50;59.80;;;;;;5074065;28;20707;-49
2023/08/28 03:27:05;;;;;;;1.35;0.73;;;20.50;59.70;;;;;;5073738;28;20195;-50
2023/08/28 03:29:32;;;;;;;1.88;0.80;;;20.50;59.70;;;;;;5073791;28;20306;-50
2023/08/28 03:31:59;;;;;;;1.58;0.63;;;20.50;59.80;;;;;;5073901;28;20214;-51
2023/08/28 03:34:26;;;;;;;3.42;0.70;;;20.50;59.70;;;;;;5073691;28;20599;-50
2023/08/28 03:36:53;;;;;;;2.05;0.60;;;20.60;59.90;;;;;;5074008;28;20201;-52
2023/08/28 03:39:20;;;;;;;0.90;0.60;;;20.50;59.80;;;;;;5073748;28;20309;-52
2023/08/28 03:41:48;;;;;;;2.28;0.60;;;20.50;59.90;;;;;;5073385;28;20187;-50
2023/08/28 03:44:15;;;;;;;1.38;0.50;;;20.50;59.90;;;;;;5073591;28;20214;-50
2023/08/28 03:46:41;;;;;;;0.98;0.68;;;20.50;59.90;;;;;;5073693;28;20195;-51
2023/08/28 03:49:08;;;;;;;1.27;0.80;;;20.50;59.90;;;;;;5072915;28;20719;-55
2023/08/28 03:51:35;;;;;;;0.65;0.50;;;20.50;59.90;;;;;;5073472;28;20193;-54
2023/08/28 03:54:02;;;;;;;3.17;0.70;;;20.50;60.00;;;;;;5073419;28;20584;-54
2023/08/28 03:56:30;;;;;;;1.10;0.65;;;20.50;60.00;;;;;;5070677;28;20231;-51
2023/08/28 03:58:58;;;;;;;1.13;0.95;;;20.50;60.00;;;;;;5073329;28;20215;-52
2023/08/28 04:01:25;;;;;;;1.33;0.77;;;20.50;60.00;;;;;;5073239;28;20183;-52
2023/08/28 04:03:52;;;;;;;1.38;0.85;;;20.50;60.00;;;;;;5073277;28;20313;-54
2023/08/28 04:06:19;;;;;;;1.10;0.50;;;20.50;60.00;;;;;;5073012;28;20549;-51
2023/08/28 04:08:45;;;;;;;2.53;0.82;;;20.50;60.00;;;;;;5073339;28;20301;-51
2023/08/28 04:11:12;;;;;;;3.58;0.63;;;20.60;60.10;;;;;;5072779;28;20209;-48
2023/08/28 04:13:39;;;;;;;2.50;0.77;;;20.50;60.00;;;;;;5073427;28;20245;-55
2023/08/28 04:16:07;;;;;;;0.73;0.50;;;20.50;60.00;;;;;;5073129;28;20282;-54
2023/08/28 04:18:34;;;;;;;0.90;0.57;;;20.50;60.10;;;;;;5072681;28;20221;-54
2023/08/28 04:21:04;;;;;;;2.22;0.70;;;20.50;60.10;;;;;;5072651;28;20641;-56
2023/08/28 04:23:31;;;;;;;0.57;0.50;;;20.50;60.10;;;;;;5072681;28;20604;-52
2023/08/28 04:26:00;;;;;;;0.77;0.75;;;20.50;60.10;;;;;;5072742;28;20249;-56
2023/08/28 04:28:26;;;;;;;1.65;0.80;;;20.50;60.10;;;;;;5072685;28;20302;-53
2023/08/28 04:30:53;;;;;;;0.80;0.73;;;20.50;60.10;;;;;;5073020;28;20197;-46
2023/08/28 04:33:23;;;;;;;1.02;0.50;;;20.50;60.10;;;;;;5072571;28;20241;-51
2023/08/28 04:35:50;;;;;;;2.20;0.50;;;20.50;60.10;;;;;;5072759;28;20270;-49
2023/08/28 04:38:17;;;;;;;0.63;0.60;;;20.50;60.10;;;;;;5072673;28;20217;-52
2023/08/28 04:40:44;;;;;;;0.40;0.40;;;20.50;60.20;;;;;;5072582;28;20186;-54
2023/08/28 04:43:10;;;;;;;1.92;1.00;;;20.50;60.10;;;;;;5072389;28;20221;-52
2023/08/28 04:45:37;;;;;;;1.42;0.70;;;20.50;60.20;;;;;;5072401;28;20186;-51
2023/08/28 04:48:05;;;;;;;0.90;0.57;;;20.50;60.20;;;;;;5072124;28;20187;-52
2023/08/28 04:50:33;;;;;;;1.17;0.70;;;20.50;60.20;;;;;;5072201;28;20266;-55
2023/08/28 04:53:00;;;;;;;1.27;0.80;;;20.60;60.30;;;;;;5072135;28;20215;-55
2023/08/28 04:55:27;;;;;;;1.13;0.52;;;20.50;60.20;;;;;;5072198;28;20325;-51
2023/08/28 04:57:53;;;;;;;2.47;0.70;;;20.50;60.20;;;;;;5072141;28;20289;-51
2023/08/28 05:00:20;;;;;;;1.67;0.75;;;20.50;60.30;;;;;;5072188;28;20653;-52
2023/08/28 05:02:47;;;;;;;0.70;0.65;;;20.50;60.20;;;;;;5072214;28;20194;-46
2023/08/28 05:05:14;;;;;;;1.83;0.90;;;20.50;60.20;;;;;;5072279;28;20199;-54
2023/08/28 05:07:42;;;;;;;1.02;0.70;;;20.50;60.30;;;;;;5072251;28;20638;-53
2023/08/28 05:10:10;;;;;;;1.85;0.70;;;20.50;60.30;;;;;;5072295;28;20719;-55
2023/08/28 05:12:37;;;;;;;1.98;0.70;;;20.50;60.20;;;;;;5071872;28;20210;-52
2023/08/28 05:15:04;;;;;;;1.05;0.60;;;20.50;60.30;;;;;;5072477;28;20214;-50
2023/08/28 05:17:31;;;;;;;1.98;0.80;;;20.50;60.30;;;;;;5071743;28;20187;-53
2023/08/28 05:19:58;;;;;;;1.02;0.80;;;20.50;60.30;;;;;;5071822;28;20244;-56
2023/08/28 05:22:25;;;;;;;1.27;0.73;;;20.50;60.30;;;;;;5072078;28;20293;-52
2023/08/28 05:24:53;;;;;;;1.00;0.73;;;20.50;60.30;;;;;;5071656;28;20662;-52
2023/08/28 05:27:20;;;;;;;0.90;0.70;;;20.50;60.30;;;;;;5071685;28;20187;-54
2023/08/28 05:29:48;;;;;;;1.20;0.93;;;20.50;60.40;;;;;;5072152;28;20214;-55
2023/08/28 05:32:14;;;;;;;2.20;0.80;;;20.50;60.40;;;;;;5071913;28;20187;-52
2023/08/28 05:34:41;;;;;;;2.28;0.90;;;20.50;60.40;;;;;;5071590;28;20771;-55
2023/08/28 05:37:08;;;;;;;1.77;0.80;;;20.50;60.40;;;;;;5072059;28;20193;-47
2023/08/28 05:39:35;;;;;;;2.97;1.00;;;20.50;60.40;;;;;;5071877;28;20215;-53
2023/08/28 05:42:03;;;;;;;2.25;0.90;;;20.50;60.40;;;;;;5071663;28;20209;-53
2023/08/28 05:44:30;;;;;;;1.30;0.80;;;20.50;60.40;;;;;;5071815;28;20306;-51
2023/08/28 05:46:57;;;;;;;1.85;0.80;;;20.50;60.40;;;;;;5072028;28;20265;-46
2023/08/28 05:49:23;;;;;;;1.90;0.90;;;20.50;60.40;;;;;;5071252;28;20705;-50
2023/08/28 05:51:50;;;;;;;2.55;0.90;;;20.50;60.40;;;;;;5071986;28;20193;-54
2023/08/28 05:54:17;;;;;;;0.98;0.73;;;20.50;60.40;;;;;;5071709;28;20230;-54
2023/08/28 05:56:44;;;;;;;1.40;1.08;;;20.50;60.50;;;;;;5070762;28;20329;-50
2023/08/28 05:59:12;;;;;;;0.88;0.70;;;20.50;60.60;;;;;;5071943;28;20301;-51
2023/08/28 06:01:39;;;;;;;0.90;0.70;;;20.50;60.50;;;;;;5071842;28;20604;-53
2023/08/28 06:04:06;;;;;;;3.53;1.00;;;20.50;60.50;;;;;;5071470;28;20483;-53
2023/08/28 06:06:33;;;;;;;1.90;0.90;;;20.50;60.50;;;;;;5071293;28;20191;-54
2023/08/28 06:09:03;;;;;;;2.10;1.30;;;20.50;60.50;;;;;;5071673;28;20215;-49
2023/08/28 06:11:30;;;;;;;2.05;0.90;;;20.50;60.60;;;;;;5071585;28;20260;-54
2023/08/28 06:13:59;;;;;;;1.05;0.95;;;20.50;60.60;;;;;;5071584;28;20231;-55
2023/08/28 06:16:27;;;;;;;1.45;0.90;;;20.50;60.70;;;;;;5071381;28;20278;-57
2023/08/28 06:18:54;;;;;;;0.95;0.90;;;20.50;60.60;;;;;;5071217;28;20313;-55
2023/08/28 06:21:21;;;;;;;2.53;0.98;;;20.50;60.60;;;;;;5071500;28;20290;-55
2023/08/28 06:23:48;;;;;;;2.20;1.00;;;20.50;60.60;;;;;;5071700;28;20284;-53
2023/08/28 06:26:15;;;;;;;2.03;0.90;;;20.50;60.60;;;;;;5071747;28;20268;-54
2023/08/28 06:28:41;;;;;;;0.98;0.90;;;20.50;60.60;;;;;;5071920;28;20309;-52
2023/08/28 06:31:08;;;;;;;1.70;0.88;;;20.50;60.60;;;;;;5075055;28;20270;-47
2023/08/28 06:33:36;;;;;;;1.80;1.10;;;20.50;60.90;;;;;;5074686;28;20313;-56
2023/08/28 06:36:04;;;;;;;1.45;0.95;;;20.50;60.60;;;;;;5075074;28;20281;-50
2023/08/28 06:38:31;;;;;;;1.20;0.80;;;20.50;60.70;;;;;;5074680;28;20637;-55
2023/08/28 06:41:00;;;;;;;2.55;0.93;;;20.50;60.70;;;;;;5074687;28;20186;-50
2023/08/28 06:43:29;;;;;;;0.70;0.70;;;20.50;60.60;;;;;;5074718;28;20219;-52
2023/08/28 06:45:56;;;;;;;1.75;0.80;;;20.50;60.70;;;;;;5074939;28;20187;-48
2023/08/28 06:48:23;;;;;;;2.70;0.90;;;20.50;60.70;;;;;;5074646;28;20246;-50
2023/08/28 06:50:52;;;;;;;1.25;0.90;;;20.50;60.70;;;;;;5074509;28;20198;-51
2023/08/28 06:53:20;;;;;;;2.40;0.80;;;20.50;60.70;;;;;;5074354;28;20700;-53
2023/08/28 06:55:48;;;;;;;1.23;0.98;;;20.50;60.70;;;;;;5074334;28;20248;-54
2023/08/28 06:58:18;;;;;;;1.63;1.02;;;20.50;60.70;;;;;;5074763;28;20578;-47
2023/08/28 07:00:48;;;;;;;1.70;1.00;;;20.50;60.70;;;;;;5072689;28;20568;-54
2023/08/28 07:03:17;;;;;;;1.10;1.00;;;20.50;60.70;;;;;;5079041;28;20201;-55
2023/08/28 07:05:47;;;;;;;2.92;0.90;;;20.50;60.70;;;;;;5015666;28;20553;-55
2023/08/28 07:08:18;;;;;;;1.13;1.02;;;20.50;60.60;;;;;;5028833;28;20206;-55
2023/08/28 07:10:48;;;;;;;1.33;1.10;;;20.60;60.60;;;;;;5071552;28;20187;-56
2023/08/28 07:13:17;;;;;;;1.98;1.17;;;20.60;60.60;;;;;;5073239;28;20215;-55
2023/08/28 07:16:04;;;;;;;1.83;1.23;;;20.60;60.40;;;;;;5077964;28;20207;-56
2023/08/28 07:18:34;;;;;;;4.93;1.25;;;20.60;60.50;;;;;;5060065;28;20292;-55
2023/08/28 07:21:04;;;;;;;4.10;1.30;;;20.80;60.60;;;;;;5062339;28;20226;-52
2023/08/28 07:23:36;;;;;;;1.15;1.05;;;20.80;60.60;;;;;;5031697;28;20213;-53
2023/08/28 07:26:06;;;;;;;4.75;1.10;;;20.80;60.60;;;;;;5079349;28;20230;-54
2023/08/28 07:28:36;;;;;;;1.40;1.10;;;20.80;60.60;;;;;;5051350;28;20336;-56
2023/08/28 07:31:05;;;;;;;1.50;1.00;;;20.80;60.50;;;;;;5086851;28;20549;-56
2023/08/28 07:33:36;;;;;;;3.22;1.02;;;20.90;60.50;;;;;;5073383;28;20310;-55
2023/08/28 07:36:06;;;;;;;3.33;1.13;;;20.90;60.50;;;;;;5071730;28;20669;-54
2023/08/28 07:38:38;;;;;;;3.80;1.63;;;20.80;60.30;;;;;;5072132;28;20221;-55
2023/08/28 07:41:07;;;;;;;2.10;1.10;;;20.90;60.30;;;;;;5071414;28;20187;-55
2023/08/28 07:43:37;;;;;;;2.08;1.10;;;20.90;60.30;;;;;;5068691;28;20222;-56
2023/08/28 07:46:10;;;;;;;1.65;1.10;;;21.00;60.40;;;;;;5070141;28;20282;-56
2023/08/28 07:48:40;;;;;;;3.17;1.00;;;21.00;60.30;;;;;;5068136;28;20223;-53
2023/08/28 07:51:11;;;;;;;1.55;0.80;;;20.90;60.30;;;;;;5059412;28;20191;-56
2023/08/28 07:53:42;;;;;;;3.75;0.95;;;20.90;60.20;;;;;;5070377;28;20687;-52
2023/08/28 07:56:18;;;;;;;4.10;1.30;;;21.00;60.30;;;;;;5062900;28;20231;-56
2023/08/28 07:58:52;;;;;;;3.78;1.30;;;21.00;61.10;;;;;;5009012;28;20778;-55
2023/08/28 08:01:27;;;;;;;2.05;1.00;;;20.90;60.20;;;;;;5063149;28;20628;-56
2023/08/28 08:03:57;;;;;;;2.40;1.05;;;21.00;60.40;;;;;;5063234;28;20719;-55
2023/08/28 08:06:27;;;;;;;2.70;1.38;;;21.00;60.40;;;;;;5054528;28;20241;-51
2023/08/28 08:09:04;;;;;;;1.20;1.02;;;20.90;60.20;;;;;;5065144;28;20225;-56
2023/08/28 08:11:35;;;;;;;2.03;1.20;;;21.00;60.40;;;;;;5067648;28;20206;-49
2023/08/28 08:14:06;;;;;;;1.77;1.00;;;21.00;60.50;;;;;;5059928;28;20676;-56
2023/08/28 08:16:34;;;;;;;3.83;1.08;;;21.00;60.60;;;;;;5057558;28;20657;-55
2023/08/28 08:19:09;;;;;;;3.33;1.10;;;21.00;60.70;;;;;;5067875;28;20264;-56
2023/08/28 08:21:36;;;;;;;1.45;1.05;;;21.00;60.80;;;;;;5060881;28;20198;-54
2023/08/28 08:24:08;;;;;;;1.98;1.30;;;21.10;60.90;;;;;;5059596;28;20218;-56
2023/08/28 08:26:37;;;;;;;2.58;1.10;;;21.10;60.90;;;;;;5067961;28;20268;-54
2023/08/28 08:29:06;;;;;;;3.78;1.38;;;21.10;61.00;;;;;;5063807;28;20250;-48
2023/08/28 08:31:34;;;;;;;4.35;1.52;;;21.20;61.10;;;;;;5069407;28;20250;-56
2023/08/28 08:34:05;;;;;;;4.88;1.33;;;21.20;61.10;;;;;;5076078;28;20684;-56
2023/08/28 08:36:33;;;;;;;3.53;1.25;;;21.20;61.10;;;;;;5028778;28;20202;-55
2023/08/28 08:39:00;;;;;;;6.20;1.55;;;21.20;61.10;;;;;;5080225;28;20221;-54
2023/08/28 08:41:30;;;;;;;5.13;1.08;;;21.20;61.10;;;;;;5068295;28;20646;-55
2023/08/28 08:43:57;;;;;;;4.07;1.40;;;21.30;61.30;;;;;;5003956;28;20227;-55
2023/08/28 08:46:26;;;;;;;1.95;1.30;;;21.30;61.20;;;;;;5055469;28;20281;-53
2023/08/28 08:48:57;;;;;;;4.53;1.23;;;21.30;61.30;;;;;;5036268;28;20222;-55
2023/08/28 08:51:31;;;;;;;2.15;1.35;;;21.30;61.20;;;;;;5046332;28;20198;-53
2023/08/28 08:54:04;;;;;;;4.13;1.25;;;21.40;61.40;;;;;;5062437;28;20230;-53
2023/08/28 08:56:36;;;;;;;2.78;1.27;;;21.50;61.50;;;;;;5066959;28;20234;-53
2023/08/28 08:59:07;;;;;;;3.55;1.30;;;21.50;61.50;;;;;;5020941;28;20223;-52
2023/08/28 09:01:38;;;;;;;3.47;1.05;;;21.50;61.50;;;;;;5069089;28;20199;-54
2023/08/28 09:04:07;;;;;;;2.88;1.30;;;21.50;61.50;;;;;;5061684;28;20254;-49
2023/08/28 09:06:38;;;;;;;2.55;1.20;;;21.50;61.60;;;;;;5022170;28;20293;-51
2023/08/28 09:09:06;;;;;;;3.20;1.45;;;21.50;61.50;;;;;;5062749;28;20824;-50
2023/08/28 09:11:36;;;;;;;2.45;1.02;;;21.60;61.60;;;;;;5068654;28;20199;-52
2023/08/28 09:14:04;;;;;;;1.60;1.30;;;21.60;61.60;;;;;;5068020;28;20584;-53
2023/08/28 09:16:33;;;;;;;2.33;1.15;;;21.60;61.60;;;;;;5068665;28;20201;-54
2023/08/28 09:19:00;;;;;;;6.25;1.38;;;21.60;61.60;;;;;;5066089;28;20278;-52
2023/08/28 09:21:34;;;;;;;2.33;1.05;;;21.70;61.60;;;;;;5066842;28;20287;-54
2023/08/28 09:24:01;;;;;;;3.25;1.00;;;21.70;61.60;;;;;;5059990;28;20277;-50
2023/08/28 09:26:29;;;;;;;2.17;1.17;;;21.70;61.60;;;;;;5060256;28;20201;-53
2023/08/28 09:29:03;;;;;;;2.10;0.90;;;21.70;61.50;;;;;;5067678;28;20530;-54
2023/08/28 09:31:32;;;;;;;2.45;1.33;;;21.70;61.40;;;;;;5063327;28;20202;-50
2023/08/28 09:33:59;;;;;;;1.98;1.20;;;21.80;61.50;;;;;;5064862;28;20260;-52
2023/08/28 09:36:29;;;;;;;2.15;1.10;;;21.80;61.50;;;;;;5068953;28;20191;-52
2023/08/28 09:39:00;;;;;;;3.53;1.20;;;21.80;61.50;;;;;;5061863;28;20287;-54
2023/08/28 09:41:37;;;;;;;2.20;1.23;;;21.80;61.40;;;;;;5066955;28;20190;-51
2023/08/28 09:44:05;;;;;;;3.72;1.15;;;21.80;61.50;;;;;;5064954;28;20197;-53
2023/08/28 09:46:32;;;;;;;2.15;1.30;;;21.80;61.30;;;;;;5060074;28;20198;-54
2023/08/28 09:49:00;;;;;;;1.70;1.05;;;21.80;61.30;;;;;;5063810;28;20282;-54
2023/08/28 09:51:39;;;;;;;2.72;1.25;;;21.80;61.30;;;;;;5066925;28;20333;-53
2023/08/28 09:54:06;;;;;;;1.95;1.20;;;21.90;61.40;;;;;;5065676;28;20218;-51
2023/08/28 09:56:33;;;;;;;2.10;1.27;;;21.90;61.40;;;;;;5068259;28;20314;-53
2023/08/28 09:59:02;;;;;;;8.35;1.00;;;21.90;61.40;;;;;;5065486;28;20286;-52
2023/08/28 10:01:32;;;;;;;4.85;1.25;;;21.90;61.30;;;;;;5063213;28;20786;-52
2023/08/28 10:04:01;;;;;;;1.20;1.02;;;21.90;61.30;;;;;;5065225;28;20206;-56
2023/08/28 10:06:29;;;;;;;4.30;1.17;;;21.90;61.30;;;;;;5071603;28;20719;-55
2023/08/28 10:09:00;;;;;;;1.50;1.10;;;21.90;61.20;;;;;;5058452;28;20203;-54
2023/08/28 10:11:37;;;;;;;2.33;1.20;;;22.00;61.20;;;;;;5069742;28;20272;-49
2023/08/28 10:14:06;;;;;;;1.27;1.08;;;22.00;61.20;;;;;;5067952;28;20293;-48
2023/08/28 10:16:37;;;;;;;2.55;1.42;;;22.00;61.20;;;;;;5067523;28;20703;-46
2023/08/28 10:19:18;;;;;;;8.32;1.33;;;22.00;61.20;;;;;;5060427;28;20732;-55
2023/08/28 10:21:45;;;;;;;2.35;1.13;;;22.00;61.10;;;;;;5069376;28;20360;-52
2023/08/28 10:24:14;;;;;;;2.05;1.20;;;22.00;61.00;;;;;;5065415;28;20202;-51
2023/08/28 10:26:44;;;;;;;10.93;1.50;;;22.00;60.90;;;;;;5068285;28;20222;-53
2023/08/28 10:29:11;;;;;;;2.00;1.20;;;21.90;60.90;;;;;;5056914;28;20687;-52
2023/08/28 10:31:42;;;;;;;3.67;1.20;;;22.00;61.00;;;;;;5071340;28;20211;-56
2023/08/28 10:34:10;;;;;;;1.02;0.93;;;21.90;60.90;;;;;;5068930;28;20241;-53
2023/08/28 10:36:37;;;;;;;2.20;1.10;;;21.90;60.80;;;;;;5066000;28;20273;-54
2023/08/28 10:39:05;;;;;;;3.55;1.30;;;21.90;60.80;;;;;;5065514;28;20676;-56
2023/08/28 10:41:34;;;;;;;2.92;1.30;;;21.90;60.90;;;;;;5068432;28;20223;-56
2023/08/28 10:44:03;;;;;;;1.48;1.17;;;21.90;60.90;;;;;;5061926;28;20788;-56
2023/08/28 10:46:31;;;;;;;2.20;1.00;;;21.80;60.90;;;;;;5068587;28;20219;-57
2023/08/28 10:49:01;;;;;;;1.65;1.00;;;21.80;60.90;;;;;;5065501;28;20198;-57
2023/08/28 10:51:32;;;;;;;2.00;1.27;;;21.80;60.90;;;;;;5069764;28;20301;-56
2023/08/28 10:54:02;;;;;;;1.88;1.27;;;21.80;60.90;;;;;;5065817;28;20568;-54
2023/08/28 10:56:34;;;;;;;1.83;0.90;;;21.80;60.90;;;;;;5064686;28;20230;-53
2023/08/28 10:59:24;;;;;;;1.48;1.08;;;21.80;60.80;;;;;;5066553;28;20202;-56
2023/08/28 11:01:55;;;;;;;1.20;1.10;;;21.80;60.80;;;;;;5066172;28;20222;-56
2023/08/28 11:04:24;;;;;;;1.33;1.23;;;21.80;60.80;;;;;;5067611;28;20676;-53
2023/08/28 11:06:52;;;;;;;2.08;1.17;;;21.80;60.80;;;;;;5067863;28;20226;-48
2023/08/28 11:09:39;;;;;;;2.05;1.20;;;21.80;60.80;;;;;;5064144;28;20652;-49
2023/08/28 11:12:30;;;;;;;1.95;1.25;;;21.80;60.80;;;;;;5065172;28;20229;-55
2023/08/28 11:14:59;;;;;;;1.30;1.10;;;21.80;60.80;;;;;;5067928;28;20222;-50
2023/08/28 11:17:26;;;;;;;1.70;1.33;;;21.70;60.70;;;;;;5070437;28;20285;-48
2023/08/28 11:20:11;;;;;;;2.97;1.15;;;21.70;60.60;;;;;;5066076;28;20615;-51
2023/08/28 11:22:40;;;;;;;5.88;1.20;;;21.70;60.60;;;;;;5068666;28;20569;-49
2023/08/28 11:25:09;;;;;;;2.97;1.00;;;21.70;60.70;;;;;;5064241;28;20201;-50
2023/08/28 11:27:43;;;;;;;2.47;1.25;;;21.80;60.90;;;;;;5062968;28;20198;-50
2023/08/28 11:30:11;;;;;;;5.63;1.30;;;21.80;60.90;;;;;;5067371;28;20192;-54
2023/08/28 11:32:40;;;;;;;1.20;1.10;;;21.80;60.90;;;;;;5063804;28;20282;-53
2023/08/28 11:35:12;;;;;;;1.10;1.00;;;21.80;60.90;;;;;;5068384;28;20305;-53
2023/08/28 11:37:41;;;;;;;2.00;1.10;;;21.80;60.90;;;;;;5067661;28;20257;-53
2023/08/28 11:40:09;;;;;;;1.67;1.20;;;21.80;60.80;;;;;;5065773;28;20214;-54
2023/08/28 11:42:37;;;;;;;1.30;1.00;;;21.80;60.70;;;;;;5067496;28;20221;-52
2023/08/28 11:45:05;;;;;;;1.67;0.98;;;21.80;60.60;;;;;;5067909;28;20197;-54
2023/08/28 11:47:33;;;;;;;2.10;1.13;;;21.80;60.70;;;;;;5060634;28;20195;-53
2023/08/28 11:50:03;;;;;;;3.20;1.13;;;21.80;60.70;;;;;;5062715;28;20213;-53
2023/08/28 11:52:31;;;;;;;2.40;1.17;;;21.80;60.70;;;;;;5063833;28;20286;-52
2023/08/28 11:55:03;;;;;;;1.73;1.10;;;21.80;60.80;;;;;;5069137;28;20234;-55
2023/08/28 11:57:31;;;;;;;1.10;1.00;;;21.80;60.80;;;;;;5074391;28;20186;-57
2023/08/28 12:00:00;;;;;;;1.45;1.27;;;21.80;60.70;;;;;;5061392;28;20230;-56
2023/08/28 12:02:28;;;;;;;2.08;1.48;;;21.80;60.80;;;;;;5056883;28;20198;-51
2023/08/28 12:04:55;;;;;;;1.40;1.10;;;21.80;60.80;;;;;;5051044;28;20190;-56
2023/08/28 12:07:23;;;;;;;5.93;1.10;;;21.90;60.90;;;;;;5062603;28;20225;-57
2023/08/28 12:09:54;;;;;;;3.15;0.90;;;21.80;60.80;;;;;;5067271;28;20195;-57
2023/08/28 12:12:22;;;;;;;6.95;1.27;;;21.80;60.90;;;;;;5060602;28;20220;-54
2023/08/28 12:14:50;;;;;;;3.15;1.15;;;21.80;60.90;;;;;;5065384;28;20288;-56
2023/08/28 12:17:18;;;;;;;1.65;1.00;;;21.80;60.90;;;;;;5060666;28;20229;-57
2023/08/28 12:19:48;;;;;;;2.05;1.10;;;21.90;61.00;;;;;;5062623;28;20199;-59
2023/08/28 12:22:16;;;;;;;1.50;0.98;;;21.90;61.00;;;;;;5063894;28;20300;-55
2023/08/28 12:24:43;;;;;;;5.38;1.25;;;21.90;61.00;;;;;;5060741;28;20229;-53
2023/08/28 12:27:15;;;;;;;3.50;1.20;;;22.00;61.10;;;;;;5063648;28;20302;-53
2023/08/28 12:29:44;;;;;;;1.60;1.00;;;21.90;60.80;;;;;;5059490;28;22309;-55
2023/08/28 12:32:16;;;;;;;6.10;1.30;;;22.00;61.00;;;;;;5061017;28;20607;-56
2023/08/28 12:34:46;;;;;;;1.25;0.85;;;22.00;60.80;;;;;;5063782;28;20900;-54
2023/08/28 12:37:17;;;;;;;5.30;1.10;;;22.00;60.70;;;;;;5060592;28;20227;-57
2023/08/28 12:39:48;;;;;;;4.25;1.23;;;22.00;60.70;;;;;;5057247;28;20202;-56
2023/08/28 12:42:25;;;;;;;1.73;1.08;;;22.00;60.60;;;;;;5056449;28;20223;-53
2023/08/28 12:44:56;;;;;;;3.30;1.05;;;22.10;60.60;;;;;;5061547;28;20858;-54
2023/08/28 12:47:28;;;;;;;2.15;0.90;;;22.10;60.60;;;;;;5056840;28;20229;-54
2023/08/28 12:50:00;;;;;;;4.22;1.20;;;22.10;60.60;;;;;;5057513;28;20205;-53
2023/08/28 12:52:30;;;;;;;6.45;1.30;;;22.10;60.70;;;;;;5053967;28;20228;-53
2023/08/28 12:54:58;;;;;;;5.07;1.23;;;22.20;60.70;;;;;;5062095;28;20657;-56
2023/08/28 12:57:27;;;;;;;1.38;1.08;;;22.20;60.60;;;;;;5061795;28;20261;-52